sensor_id;sensor_type;location;lat;lon;timestamp;P1;durP1;ratioP1;P2;durP2;ratioP2
8913;SDS011;4492;48.736;9.092;2023-04-25T00:00:04;1.50;;;1.40;;
8913;SDS011;4492;48.736;9.092;2023-04-25T00:02:32;1.93;;;1.20;;
8913;SDS011;4492;48.736;9.092;2023-04-25T00:04:59;2.00;;;1.30;;
8913;SDS011;4492;48.736;9.092;2023-04-25T00:07:26;2.30;;;1.40;;
8913;SDS011;4492;48.736;9.092;2023-04-25T00:09:52;3.17;;;1.50;;
8913;SDS011;4492;48.736;9.092;2023-04-25T00:12:18;2.10;;;1.27;;
8913;SDS011;4492;48.736;9.092;2023-04-25T00:14:45;2.07;;;1.17;;
8913;SDS011;4492;48.736;9.092;2023-04-25T00:17:11;2.67;;;1.50;;
8913;SDS011;4492;48.736;9.092;2023-04-25T00:19:37;2.73;;;1.53;;
8913;SDS011;4492;48.736;9.092;2023-04-25T00:22:03;3.23;;;1.80;;
8913;SDS011;4492;48.736;9.092;2023-04-25T00:24:28;1.40;;;1.30;;
8913;SDS011;4492;48.736;9.092;2023-04-25T00:26:54;1.40;;;1.30;;
8913;SDS011;4492;48.736;9.092;2023-04-25T00:29:20;2.57;;;1.77;;
8913;SDS011;4492;48.736;9.092;2023-04-25T00:31:46;2.87;;;2.20;;
8913;SDS011;4492;48.736;9.092;2023-04-25T00:34:11;2.27;;;1.60;;
8913;SDS011;4492;48.736;9.092;2023-04-25T00:36:37;1.83;;;1.60;;
8913;SDS011;4492;48.736;9.092;2023-04-25T00:39:03;2.83;;;1.97;;
8913;SDS011;4492;48.736;9.092;2023-04-25T00:41:29;2.13;;;1.70;;
8913;SDS011;4492;48.736;9.092;2023-04-25T00:43:55;1.77;;;1.67;;
8913;SDS011;4492;48.736;9.092;2023-04-25T00:46:22;2.00;;;1.57;;
8913;SDS011;4492;48.736;9.092;2023-04-25T00:48:48;2.90;;;1.77;;
8913;SDS011;4492;48.736;9.092;2023-04-25T00:51:16;2.73;;;1.77;;
8913;SDS011;4492;48.736;9.092;2023-04-25T00:53:44;2.47;;;1.83;;
8913;SDS011;4492;48.736;9.092;2023-04-25T00:56:11;2.67;;;1.53;;
8913;SDS011;4492;48.736;9.092;2023-04-25T00:58:37;1.57;;;1.47;;
8913;SDS011;4492;48.736;9.092;2023-04-25T01:01:05;4.10;;;1.80;;
8913;SDS011;4492;48.736;9.092;2023-04-25T01:03:32;3.07;;;1.67;;
8913;SDS011;4492;48.736;9.092;2023-04-25T01:06:01;2.03;;;1.83;;
8913;SDS011;4492;48.736;9.092;2023-04-25T01:08:27;3.40;;;1.80;;
8913;SDS011;4492;48.736;9.092;2023-04-25T01:10:53;4.50;;;1.70;;
8913;SDS011;4492;48.736;9.092;2023-04-25T01:13:19;3.37;;;1.80;;
8913;SDS011;4492;48.736;9.092;2023-04-25T01:15:47;2.00;;;1.80;;
8913;SDS011;4492;48.736;9.092;2023-04-25T01:18:13;2.50;;;1.60;;
8913;SDS011;4492;48.736;9.092;2023-04-25T01:20:39;2.43;;;1.80;;
8913;SDS011;4492;48.736;9.092;2023-04-25T01:23:06;5.10;;;1.80;;
8913;SDS011;4492;48.736;9.092;2023-04-25T01:25:32;2.80;;;2.23;;
8913;SDS011;4492;48.736;9.092;2023-04-25T01:27:59;4.47;;;2.00;;
8913;SDS011;4492;48.736;9.092;2023-04-25T01:30:25;2.37;;;1.80;;
8913;SDS011;4492;48.736;9.092;2023-04-25T01:32:53;4.10;;;2.03;;
8913;SDS011;4492;48.736;9.092;2023-04-25T01:35:22;1.90;;;1.80;;
8913;SDS011;4492;48.736;9.092;2023-04-25T01:37:49;2.50;;;2.07;;
8913;SDS011;4492;48.736;9.092;2023-04-25T01:40:16;2.00;;;1.90;;
8913;SDS011;4492;48.736;9.092;2023-04-25T01:42:44;2.90;;;1.93;;
8913;SDS011;4492;48.736;9.092;2023-04-25T01:45:10;2.43;;;1.70;;
8913;SDS011;4492;48.736;9.092;2023-04-25T01:47:37;1.90;;;1.80;;
8913;SDS011;4492;48.736;9.092;2023-04-25T01:50:05;4.60;;;1.90;;
8913;SDS011;4492;48.736;9.092;2023-04-25T01:52:34;3.10;;;2.07;;
8913;SDS011;4492;48.736;9.092;2023-04-25T01:55:03;2.97;;;2.10;;
8913;SDS011;4492;48.736;9.092;2023-04-25T01:57:30;3.17;;;2.40;;
8913;SDS011;4492;48.736;9.092;2023-04-25T02:00:00;2.60;;;2.17;;
8913;SDS011;4492;48.736;9.092;2023-04-25T02:02:28;2.80;;;1.90;;
8913;SDS011;4492;48.736;9.092;2023-04-25T02:04:54;3.07;;;2.07;;
8913;SDS011;4492;48.736;9.092;2023-04-25T02:07:20;3.93;;;1.83;;
8913;SDS011;4492;48.736;9.092;2023-04-25T02:09:46;3.60;;;1.90;;
8913;SDS011;4492;48.736;9.092;2023-04-25T02:12:14;3.33;;;2.17;;
8913;SDS011;4492;48.736;9.092;2023-04-25T02:14:42;3.70;;;1.90;;
8913;SDS011;4492;48.736;9.092;2023-04-25T02:17:08;1.93;;;1.77;;
8913;SDS011;4492;48.736;9.092;2023-04-25T02:19:34;3.80;;;1.90;;
8913;SDS011;4492;48.736;9.092;2023-04-25T02:21:59;2.20;;;1.87;;
8913;SDS011;4492;48.736;9.092;2023-04-25T02:24:26;3.43;;;1.90;;
8913;SDS011;4492;48.736;9.092;2023-04-25T02:26:52;1.70;;;1.60;;
8913;SDS011;4492;48.736;9.092;2023-04-25T02:29:20;1.67;;;1.57;;
8913;SDS011;4492;48.736;9.092;2023-04-25T02:31:52;1.87;;;1.70;;
8913;SDS011;4492;48.736;9.092;2023-04-25T02:34:21;2.43;;;1.67;;
8913;SDS011;4492;48.736;9.092;2023-04-25T02:36:47;3.33;;;1.50;;
8913;SDS011;4492;48.736;9.092;2023-04-25T02:39:15;2.67;;;1.80;;
8913;SDS011;4492;48.736;9.092;2023-04-25T02:41:41;2.10;;;1.90;;
8913;SDS011;4492;48.736;9.092;2023-04-25T02:44:07;4.40;;;1.77;;
8913;SDS011;4492;48.736;9.092;2023-04-25T02:46:38;4.00;;;1.80;;
8913;SDS011;4492;48.736;9.092;2023-04-25T02:49:04;5.00;;;1.97;;
8913;SDS011;4492;48.736;9.092;2023-04-25T02:51:30;3.70;;;1.77;;
8913;SDS011;4492;48.736;9.092;2023-04-25T02:53:56;3.60;;;2.03;;
8913;SDS011;4492;48.736;9.092;2023-04-25T02:56:22;2.33;;;1.83;;
8913;SDS011;4492;48.736;9.092;2023-04-25T02:58:48;3.90;;;2.00;;
8913;SDS011;4492;48.736;9.092;2023-04-25T03:01:14;2.90;;;2.00;;
8913;SDS011;4492;48.736;9.092;2023-04-25T03:03:42;2.33;;;2.13;;
8913;SDS011;4492;48.736;9.092;2023-04-25T03:06:08;3.17;;;2.00;;
8913;SDS011;4492;48.736;9.092;2023-04-25T03:08:34;2.97;;;2.17;;
8913;SDS011;4492;48.736;9.092;2023-04-25T03:11:00;3.50;;;2.03;;
8913;SDS011;4492;48.736;9.092;2023-04-25T03:13:26;3.90;;;1.87;;
8913;SDS011;4492;48.736;9.092;2023-04-25T03:15:52;2.13;;;1.80;;
8913;SDS011;4492;48.736;9.092;2023-04-25T03:18:18;2.10;;;1.83;;
8913;SDS011;4492;48.736;9.092;2023-04-25T03:20:43;2.13;;;1.90;;
8913;SDS011;4492;48.736;9.092;2023-04-25T03:23:09;3.30;;;2.30;;
8913;SDS011;4492;48.736;9.092;2023-04-25T03:25:35;2.13;;;1.80;;
8913;SDS011;4492;48.736;9.092;2023-04-25T03:28:01;2.17;;;1.70;;
8913;SDS011;4492;48.736;9.092;2023-04-25T03:30:29;2.33;;;1.77;;
8913;SDS011;4492;48.736;9.092;2023-04-25T03:32:54;2.47;;;2.00;;
8913;SDS011;4492;48.736;9.092;2023-04-25T03:35:23;3.93;;;2.13;;
8913;SDS011;4492;48.736;9.092;2023-04-25T03:37:48;3.27;;;2.03;;
8913;SDS011;4492;48.736;9.092;2023-04-25T03:40:14;4.40;;;2.17;;
8913;SDS011;4492;48.736;9.092;2023-04-25T03:42:40;3.10;;;2.20;;
8913;SDS011;4492;48.736;9.092;2023-04-25T03:45:06;2.40;;;2.20;;
8913;SDS011;4492;48.736;9.092;2023-04-25T03:47:32;2.63;;;2.10;;
8913;SDS011;4492;48.736;9.092;2023-04-25T03:49:58;3.33;;;2.17;;
8913;SDS011;4492;48.736;9.092;2023-04-25T03:52:26;3.40;;;2.13;;
8913;SDS011;4492;48.736;9.092;2023-04-25T03:54:52;5.43;;;2.43;;
8913;SDS011;4492;48.736;9.092;2023-04-25T03:57:18;1.80;;;1.70;;
8913;SDS011;4492;48.736;9.092;2023-04-25T03:59:43;4.47;;;2.27;;
8913;SDS011;4492;48.736;9.092;2023-04-25T04:02:09;4.27;;;2.40;;
8913;SDS011;4492;48.736;9.092;2023-04-25T04:04:35;3.03;;;2.20;;
8913;SDS011;4492;48.736;9.092;2023-04-25T04:07:01;3.47;;;2.23;;
8913;SDS011;4492;48.736;9.092;2023-04-25T04:09:27;2.23;;;2.03;;
8913;SDS011;4492;48.736;9.092;2023-04-25T04:11:53;3.40;;;2.37;;
8913;SDS011;4492;48.736;9.092;2023-04-25T04:14:19;2.77;;;2.53;;
8913;SDS011;4492;48.736;9.092;2023-04-25T04:16:45;2.97;;;2.70;;
8913;SDS011;4492;48.736;9.092;2023-04-25T04:19:11;2.40;;;2.20;;
8913;SDS011;4492;48.736;9.092;2023-04-25T04:21:40;2.77;;;2.57;;
8913;SDS011;4492;48.736;9.092;2023-04-25T04:24:06;4.87;;;2.83;;
8913;SDS011;4492;48.736;9.092;2023-04-25T04:26:32;5.27;;;2.73;;
8913;SDS011;4492;48.736;9.092;2023-04-25T04:29:04;3.30;;;2.93;;
8913;SDS011;4492;48.736;9.092;2023-04-25T04:31:30;5.33;;;3.13;;
8913;SDS011;4492;48.736;9.092;2023-04-25T04:33:57;3.30;;;2.47;;
8913;SDS011;4492;48.736;9.092;2023-04-25T04:36:23;3.10;;;2.80;;
8913;SDS011;4492;48.736;9.092;2023-04-25T04:38:51;4.33;;;2.97;;
8913;SDS011;4492;48.736;9.092;2023-04-25T04:41:17;5.13;;;2.97;;
8913;SDS011;4492;48.736;9.092;2023-04-25T04:43:44;4.10;;;2.70;;
8913;SDS011;4492;48.736;9.092;2023-04-25T04:46:10;5.30;;;2.70;;
8913;SDS011;4492;48.736;9.092;2023-04-25T04:48:37;3.07;;;2.73;;
8913;SDS011;4492;48.736;9.092;2023-04-25T04:51:05;5.57;;;3.03;;
8913;SDS011;4492;48.736;9.092;2023-04-25T04:53:31;3.23;;;2.73;;
8913;SDS011;4492;48.736;9.092;2023-04-25T04:55:57;2.33;;;2.13;;
8913;SDS011;4492;48.736;9.092;2023-04-25T04:58:23;2.63;;;2.43;;
8913;SDS011;4492;48.736;9.092;2023-04-25T05:00:49;3.07;;;2.70;;
8913;SDS011;4492;48.736;9.092;2023-04-25T05:03:15;4.53;;;3.13;;
8913;SDS011;4492;48.736;9.092;2023-04-25T05:05:41;3.67;;;2.70;;
8913;SDS011;4492;48.736;9.092;2023-04-25T05:08:07;3.10;;;2.80;;
8913;SDS011;4492;48.736;9.092;2023-04-25T05:10:32;3.33;;;2.40;;
8913;SDS011;4492;48.736;9.092;2023-04-25T05:12:58;5.13;;;2.57;;
8913;SDS011;4492;48.736;9.092;2023-04-25T05:15:24;2.80;;;2.40;;
8913;SDS011;4492;48.736;9.092;2023-04-25T05:17:50;4.33;;;2.93;;
8913;SDS011;4492;48.736;9.092;2023-04-25T05:20:15;4.37;;;2.83;;
8913;SDS011;4492;48.736;9.092;2023-04-25T05:22:43;3.17;;;2.73;;
8913;SDS011;4492;48.736;9.092;2023-04-25T05:25:09;4.97;;;3.20;;
8913;SDS011;4492;48.736;9.092;2023-04-25T05:27:35;7.60;;;3.63;;
8913;SDS011;4492;48.736;9.092;2023-04-25T05:30:00;5.43;;;2.60;;
8913;SDS011;4492;48.736;9.092;2023-04-25T05:32:26;3.90;;;3.10;;
8913;SDS011;4492;48.736;9.092;2023-04-25T05:34:52;4.60;;;2.80;;
8913;SDS011;4492;48.736;9.092;2023-04-25T05:37:18;5.73;;;3.30;;
8913;SDS011;4492;48.736;9.092;2023-04-25T05:39:44;4.10;;;3.03;;
8913;SDS011;4492;48.736;9.092;2023-04-25T05:42:10;3.67;;;3.23;;
8913;SDS011;4492;48.736;9.092;2023-04-25T05:44:35;3.00;;;2.80;;
8913;SDS011;4492;48.736;9.092;2023-04-25T05:47:01;4.33;;;3.17;;
8913;SDS011;4492;48.736;9.092;2023-04-25T05:49:30;3.13;;;2.50;;
8913;SDS011;4492;48.736;9.092;2023-04-25T05:51:55;4.10;;;2.80;;
8913;SDS011;4492;48.736;9.092;2023-04-25T05:54:21;5.83;;;2.30;;
8913;SDS011;4492;48.736;9.092;2023-04-25T05:56:46;3.67;;;2.83;;
8913;SDS011;4492;48.736;9.092;2023-04-25T05:59:12;2.57;;;2.37;;
8913;SDS011;4492;48.736;9.092;2023-04-25T06:01:37;4.37;;;2.60;;
8913;SDS011;4492;48.736;9.092;2023-04-25T06:04:03;4.33;;;3.30;;
8913;SDS011;4492;48.736;9.092;2023-04-25T06:06:28;3.17;;;2.87;;
8913;SDS011;4492;48.736;9.092;2023-04-25T06:08:54;2.87;;;2.67;;
8913;SDS011;4492;48.736;9.092;2023-04-25T06:11:20;2.90;;;2.57;;
8913;SDS011;4492;48.736;9.092;2023-04-25T06:13:45;2.73;;;2.53;;
8913;SDS011;4492;48.736;9.092;2023-04-25T06:16:11;3.70;;;2.80;;
8913;SDS011;4492;48.736;9.092;2023-04-25T06:18:36;2.57;;;2.10;;
8913;SDS011;4492;48.736;9.092;2023-04-25T06:21:02;4.40;;;3.23;;
8913;SDS011;4492;48.736;9.092;2023-04-25T06:23:28;3.47;;;2.73;;
8913;SDS011;4492;48.736;9.092;2023-04-25T06:25:53;3.67;;;2.67;;
8913;SDS011;4492;48.736;9.092;2023-04-25T06:28:19;2.77;;;2.57;;
8913;SDS011;4492;48.736;9.092;2023-04-25T06:30:44;3.33;;;2.70;;
8913;SDS011;4492;48.736;9.092;2023-04-25T06:33:10;2.97;;;2.77;;
8913;SDS011;4492;48.736;9.092;2023-04-25T06:35:35;6.37;;;3.20;;
8913;SDS011;4492;48.736;9.092;2023-04-25T06:38:01;3.33;;;3.00;;
8913;SDS011;4492;48.736;9.092;2023-04-25T06:40:26;3.53;;;2.80;;
8913;SDS011;4492;48.736;9.092;2023-04-25T06:42:52;3.07;;;2.70;;
8913;SDS011;4492;48.736;9.092;2023-04-25T06:45:17;4.03;;;2.90;;
8913;SDS011;4492;48.736;9.092;2023-04-25T06:47:43;6.30;;;2.60;;
8913;SDS011;4492;48.736;9.092;2023-04-25T06:50:08;3.13;;;2.80;;
8913;SDS011;4492;48.736;9.092;2023-04-25T06:52:34;4.10;;;3.03;;
8913;SDS011;4492;48.736;9.092;2023-04-25T06:54:59;4.10;;;2.53;;
8913;SDS011;4492;48.736;9.092;2023-04-25T06:57:25;3.47;;;2.87;;
8913;SDS011;4492;48.736;9.092;2023-04-25T06:59:50;4.27;;;3.07;;
8913;SDS011;4492;48.736;9.092;2023-04-25T07:02:16;4.20;;;3.03;;
8913;SDS011;4492;48.736;9.092;2023-04-25T07:04:42;4.17;;;3.37;;
8913;SDS011;4492;48.736;9.092;2023-04-25T07:07:08;4.17;;;3.17;;
8913;SDS011;4492;48.736;9.092;2023-04-25T07:09:33;2.93;;;2.73;;
8913;SDS011;4492;48.736;9.092;2023-04-25T07:11:59;2.90;;;2.70;;
8913;SDS011;4492;48.736;9.092;2023-04-25T07:14:27;4.43;;;2.90;;
8913;SDS011;4492;48.736;9.092;2023-04-25T07:16:52;2.83;;;2.50;;
8913;SDS011;4492;48.736;9.092;2023-04-25T07:19:18;5.10;;;3.10;;
8913;SDS011;4492;48.736;9.092;2023-04-25T07:21:43;3.30;;;3.00;;
8913;SDS011;4492;48.736;9.092;2023-04-25T07:24:09;3.87;;;2.80;;
8913;SDS011;4492;48.736;9.092;2023-04-25T07:26:35;3.97;;;3.27;;
8913;SDS011;4492;48.736;9.092;2023-04-25T07:29:00;3.50;;;3.20;;
8913;SDS011;4492;48.736;9.092;2023-04-25T07:31:26;3.57;;;3.27;;
8913;SDS011;4492;48.736;9.092;2023-04-25T07:33:52;2.97;;;2.67;;
8913;SDS011;4492;48.736;9.092;2023-04-25T07:36:17;3.20;;;2.90;;
8913;SDS011;4492;48.736;9.092;2023-04-25T07:38:43;3.90;;;3.50;;
8913;SDS011;4492;48.736;9.092;2023-04-25T07:41:09;4.37;;;3.47;;
8913;SDS011;4492;48.736;9.092;2023-04-25T07:43:34;4.63;;;3.37;;
8913;SDS011;4492;48.736;9.092;2023-04-25T07:46:00;4.50;;;3.83;;
8913;SDS011;4492;48.736;9.092;2023-04-25T07:48:25;3.93;;;3.63;;
8913;SDS011;4492;48.736;9.092;2023-04-25T07:50:51;5.83;;;3.40;;
8913;SDS011;4492;48.736;9.092;2023-04-25T07:53:19;3.43;;;3.13;;
8913;SDS011;4492;48.736;9.092;2023-04-25T07:55:45;4.47;;;3.43;;
8913;SDS011;4492;48.736;9.092;2023-04-25T07:58:11;3.97;;;3.57;;
8913;SDS011;4492;48.736;9.092;2023-04-25T08:00:36;3.53;;;3.13;;
8913;SDS011;4492;48.736;9.092;2023-04-25T08:03:02;5.20;;;3.07;;
8913;SDS011;4492;48.736;9.092;2023-04-25T08:05:28;4.77;;;3.27;;
8913;SDS011;4492;48.736;9.092;2023-04-25T08:07:54;4.17;;;3.57;;
8913;SDS011;4492;48.736;9.092;2023-04-25T08:10:21;3.83;;;3.43;;
8913;SDS011;4492;48.736;9.092;2023-04-25T08:12:48;5.57;;;3.70;;
8913;SDS011;4492;48.736;9.092;2023-04-25T08:15:13;5.20;;;3.57;;
8913;SDS011;4492;48.736;9.092;2023-04-25T08:17:39;4.60;;;3.40;;
8913;SDS011;4492;48.736;9.092;2023-04-25T08:20:05;5.03;;;3.60;;
8913;SDS011;4492;48.736;9.092;2023-04-25T08:22:31;6.07;;;4.77;;
8913;SDS011;4492;48.736;9.092;2023-04-25T08:24:57;9.57;;;5.93;;
8913;SDS011;4492;48.736;9.092;2023-04-25T08:27:23;9.93;;;5.40;;
8913;SDS011;4492;48.736;9.092;2023-04-25T08:29:51;8.73;;;6.80;;
8913;SDS011;4492;48.736;9.092;2023-04-25T08:32:18;10.23;;;7.20;;
8913;SDS011;4492;48.736;9.092;2023-04-25T08:34:46;6.67;;;5.83;;
8913;SDS011;4492;48.736;9.092;2023-04-25T08:37:12;6.03;;;4.37;;
8913;SDS011;4492;48.736;9.092;2023-04-25T08:39:40;5.87;;;3.90;;
8913;SDS011;4492;48.736;9.092;2023-04-25T08:42:07;5.50;;;3.90;;
8913;SDS011;4492;48.736;9.092;2023-04-25T08:44:35;5.83;;;4.03;;
8913;SDS011;4492;48.736;9.092;2023-04-25T08:47:02;4.10;;;3.63;;
8913;SDS011;4492;48.736;9.092;2023-04-25T08:49:29;7.80;;;4.03;;
8913;SDS011;4492;48.736;9.092;2023-04-25T08:52:00;4.10;;;3.63;;
8913;SDS011;4492;48.736;9.092;2023-04-25T08:54:27;4.43;;;3.57;;
8913;SDS011;4492;48.736;9.092;2023-04-25T08:56:55;5.73;;;3.97;;
8913;SDS011;4492;48.736;9.092;2023-04-25T08:59:23;4.13;;;3.80;;
8913;SDS011;4492;48.736;9.092;2023-04-25T09:01:49;5.97;;;3.97;;
8913;SDS011;4492;48.736;9.092;2023-04-25T09:04:15;3.80;;;3.40;;
8913;SDS011;4492;48.736;9.092;2023-04-25T09:06:41;5.63;;;4.20;;
8913;SDS011;4492;48.736;9.092;2023-04-25T09:09:08;4.33;;;3.83;;
8913;SDS011;4492;48.736;9.092;2023-04-25T09:11:35;4.20;;;3.80;;
8913;SDS011;4492;48.736;9.092;2023-04-25T09:14:14;3.80;;;3.50;;
8913;SDS011;4492;48.736;9.092;2023-04-25T09:19:27;4.67;;;4.27;;
8913;SDS011;4492;48.736;9.092;2023-04-25T09:21:57;4.57;;;3.60;;
8913;SDS011;4492;48.736;9.092;2023-04-25T09:27:09;4.20;;;3.57;;
8913;SDS011;4492;48.736;9.092;2023-04-25T09:29:38;6.63;;;3.90;;
8913;SDS011;4492;48.736;9.092;2023-04-25T09:32:26;3.40;;;3.13;;
8913;SDS011;4492;48.736;9.092;2023-04-25T09:34:52;3.50;;;3.00;;
8913;SDS011;4492;48.736;9.092;2023-04-25T09:37:25;3.07;;;2.87;;
8913;SDS011;4492;48.736;9.092;2023-04-25T09:39:56;2.83;;;2.63;;
8913;SDS011;4492;48.736;9.092;2023-04-25T09:42:24;3.90;;;3.40;;
8913;SDS011;4492;48.736;9.092;2023-04-25T09:44:53;4.03;;;3.40;;
8913;SDS011;4492;48.736;9.092;2023-04-25T09:47:19;5.77;;;3.60;;
8913;SDS011;4492;48.736;9.092;2023-04-25T09:49:47;2.90;;;2.70;;
8913;SDS011;4492;48.736;9.092;2023-04-25T09:52:14;3.40;;;2.97;;
8913;SDS011;4492;48.736;9.092;2023-04-25T09:54:45;4.03;;;3.27;;
8913;SDS011;4492;48.736;9.092;2023-04-25T09:57:12;4.63;;;2.53;;
8913;SDS011;4492;48.736;9.092;2023-04-25T09:59:51;2.30;;;2.10;;
8913;SDS011;4492;48.736;9.092;2023-04-25T10:02:20;1.90;;;1.80;;
8913;SDS011;4492;48.736;9.092;2023-04-25T10:04:50;1.40;;;1.30;;
8913;SDS011;4492;48.736;9.092;2023-04-25T10:07:19;1.30;;;1.20;;
8913;SDS011;4492;48.736;9.092;2023-04-25T10:09:48;2.13;;;1.93;;
8913;SDS011;4492;48.736;9.092;2023-04-25T10:12:17;4.20;;;1.50;;
8913;SDS011;4492;48.736;9.092;2023-04-25T10:14:43;1.00;;;1.00;;
8913;SDS011;4492;48.736;9.092;2023-04-25T10:17:10;1.00;;;1.00;;
8913;SDS011;4492;48.736;9.092;2023-04-25T10:19:36;0.87;;;0.87;;
8913;SDS011;4492;48.736;9.092;2023-04-25T10:22:07;0.90;;;0.90;;
8913;SDS011;4492;48.736;9.092;2023-04-25T10:24:38;1.43;;;1.00;;
8913;SDS011;4492;48.736;9.092;2023-04-25T10:27:05;1.17;;;0.80;;
8913;SDS011;4492;48.736;9.092;2023-04-25T10:29:32;0.67;;;0.60;;
8913;SDS011;4492;48.736;9.092;2023-04-25T10:31:57;0.97;;;0.87;;
8913;SDS011;4492;48.736;9.092;2023-04-25T10:34:24;2.40;;;0.80;;
8913;SDS011;4492;48.736;9.092;2023-04-25T10:37:03;0.83;;;0.77;;
8913;SDS011;4492;48.736;9.092;2023-04-25T10:39:29;0.63;;;0.63;;
8913;SDS011;4492;48.736;9.092;2023-04-25T10:41:58;0.80;;;0.57;;
8913;SDS011;4492;48.736;9.092;2023-04-25T10:44:27;1.80;;;0.50;;
8913;SDS011;4492;48.736;9.092;2023-04-25T10:46:57;1.90;;;0.73;;
8913;SDS011;4492;48.736;9.092;2023-04-25T10:49:28;0.50;;;0.50;;
8913;SDS011;4492;48.736;9.092;2023-04-25T10:52:11;1.30;;;0.47;;
8913;SDS011;4492;48.736;9.092;2023-04-25T10:54:41;1.17;;;0.60;;
8913;SDS011;4492;48.736;9.092;2023-04-25T10:57:08;0.60;;;0.60;;
8913;SDS011;4492;48.736;9.092;2023-04-25T10:59:52;0.63;;;0.63;;
8913;SDS011;4492;48.736;9.092;2023-04-25T11:02:18;0.53;;;0.53;;
8913;SDS011;4492;48.736;9.092;2023-04-25T11:04:44;1.20;;;1.10;;
8913;SDS011;4492;48.736;9.092;2023-04-25T11:10:15;1.30;;;1.20;;
8913;SDS011;4492;48.736;9.092;2023-04-25T11:12:41;1.90;;;1.80;;
8913;SDS011;4492;48.736;9.092;2023-04-25T11:15:07;1.80;;;1.70;;
8913;SDS011;4492;48.736;9.092;2023-04-25T11:17:33;2.40;;;2.20;;
8913;SDS011;4492;48.736;9.092;2023-04-25T11:19:59;2.10;;;1.93;;
8913;SDS011;4492;48.736;9.092;2023-04-25T11:22:28;2.20;;;2.00;;
8913;SDS011;4492;48.736;9.092;2023-04-25T11:24:55;1.70;;;1.60;;
8913;SDS011;4492;48.736;9.092;2023-04-25T11:27:21;1.70;;;1.60;;
8913;SDS011;4492;48.736;9.092;2023-04-25T11:29:47;1.37;;;1.27;;
8913;SDS011;4492;48.736;9.092;2023-04-25T11:32:15;1.70;;;1.43;;
8913;SDS011;4492;48.736;9.092;2023-04-25T11:34:42;1.30;;;1.20;;
8913;SDS011;4492;48.736;9.092;2023-04-25T11:37:12;1.00;;;1.00;;
8913;SDS011;4492;48.736;9.092;2023-04-25T11:39:42;1.00;;;1.00;;
8913;SDS011;4492;48.736;9.092;2023-04-25T11:42:10;1.20;;;1.20;;
8913;SDS011;4492;48.736;9.092;2023-04-25T11:44:37;1.20;;;1.20;;
8913;SDS011;4492;48.736;9.092;2023-04-25T11:47:04;1.23;;;1.20;;
8913;SDS011;4492;48.736;9.092;2023-04-25T11:49:30;1.40;;;1.30;;
8913;SDS011;4492;48.736;9.092;2023-04-25T11:51:57;1.43;;;1.33;;
8913;SDS011;4492;48.736;9.092;2023-04-25T11:54:23;1.90;;;1.70;;
8913;SDS011;4492;48.736;9.092;2023-04-25T11:56:48;2.13;;;1.60;;
8913;SDS011;4492;48.736;9.092;2023-04-25T11:59:14;2.27;;;1.93;;
8913;SDS011;4492;48.736;9.092;2023-04-25T12:01:49;2.37;;;2.20;;
8913;SDS011;4492;48.736;9.092;2023-04-25T12:04:16;2.43;;;2.23;;
8913;SDS011;4492;48.736;9.092;2023-04-25T12:06:53;2.57;;;2.37;;
8913;SDS011;4492;48.736;9.092;2023-04-25T12:09:21;3.40;;;2.27;;
8913;SDS011;4492;48.736;9.092;2023-04-25T12:11:54;2.80;;;2.60;;
8913;SDS011;4492;48.736;9.092;2023-04-25T12:14:27;2.83;;;2.57;;
8913;SDS011;4492;48.736;9.092;2023-04-25T12:16:54;4.80;;;2.53;;
8913;SDS011;4492;48.736;9.092;2023-04-25T12:19:22;2.80;;;2.60;;
8913;SDS011;4492;48.736;9.092;2023-04-25T12:21:49;3.40;;;2.63;;
8913;SDS011;4492;48.736;9.092;2023-04-25T12:24:16;3.57;;;2.90;;
8913;SDS011;4492;48.736;9.092;2023-04-25T12:29:23;3.03;;;2.83;;
8913;SDS011;4492;48.736;9.092;2023-04-25T12:31:51;2.87;;;2.63;;
8913;SDS011;4492;48.736;9.092;2023-04-25T12:34:18;4.37;;;3.30;;
8913;SDS011;4492;48.736;9.092;2023-04-25T12:36:44;5.07;;;4.00;;
8913;SDS011;4492;48.736;9.092;2023-04-25T12:39:17;6.90;;;3.50;;
8913;SDS011;4492;48.736;9.092;2023-04-25T12:41:44;4.07;;;3.10;;
8913;SDS011;4492;48.736;9.092;2023-04-25T12:44:11;4.17;;;2.90;;
8913;SDS011;4492;48.736;9.092;2023-04-25T12:46:37;4.80;;;3.17;;
8913;SDS011;4492;48.736;9.092;2023-04-25T12:49:04;4.70;;;3.30;;
8913;SDS011;4492;48.736;9.092;2023-04-25T12:51:31;6.53;;;3.70;;
8913;SDS011;4492;48.736;9.092;2023-04-25T12:54:00;3.40;;;3.10;;
8913;SDS011;4492;48.736;9.092;2023-04-25T12:56:27;4.67;;;3.13;;
8913;SDS011;4492;48.736;9.092;2023-04-25T12:58:54;3.63;;;3.33;;
8913;SDS011;4492;48.736;9.092;2023-04-25T13:01:20;3.63;;;3.33;;
8913;SDS011;4492;48.736;9.092;2023-04-25T13:03:46;3.27;;;3.07;;
8913;SDS011;4492;48.736;9.092;2023-04-25T13:06:13;3.97;;;3.40;;
8913;SDS011;4492;48.736;9.092;2023-04-25T13:08:39;3.90;;;3.50;;
8913;SDS011;4492;48.736;9.092;2023-04-25T13:11:06;3.70;;;3.40;;
8913;SDS011;4492;48.736;9.092;2023-04-25T13:13:32;5.60;;;3.40;;
8913;SDS011;4492;48.736;9.092;2023-04-25T13:15:59;6.10;;;3.40;;
8913;SDS011;4492;48.736;9.092;2023-04-25T13:18:25;3.87;;;3.30;;
8913;SDS011;4492;48.736;9.092;2023-04-25T13:20:54;3.93;;;3.57;;
8913;SDS011;4492;48.736;9.092;2023-04-25T13:23:21;3.50;;;3.20;;
8913;SDS011;4492;48.736;9.092;2023-04-25T13:25:47;4.07;;;3.10;;
8913;SDS011;4492;48.736;9.092;2023-04-25T13:28:13;6.27;;;4.30;;
8913;SDS011;4492;48.736;9.092;2023-04-25T13:30:39;5.30;;;4.17;;
8913;SDS011;4492;48.736;9.092;2023-04-25T13:33:05;3.87;;;3.57;;
8913;SDS011;4492;48.736;9.092;2023-04-25T13:35:31;7.50;;;4.50;;
8913;SDS011;4492;48.736;9.092;2023-04-25T13:37:58;7.67;;;4.30;;
8913;SDS011;4492;48.736;9.092;2023-04-25T13:40:24;5.63;;;4.50;;
8913;SDS011;4492;48.736;9.092;2023-04-25T13:42:50;5.80;;;5.03;;
8913;SDS011;4492;48.736;9.092;2023-04-25T13:45:16;5.77;;;4.97;;
8913;SDS011;4492;48.736;9.092;2023-04-25T13:47:42;5.73;;;5.20;;
8913;SDS011;4492;48.736;9.092;2023-04-25T13:50:07;8.23;;;5.80;;
8913;SDS011;4492;48.736;9.092;2023-04-25T13:52:34;5.90;;;5.27;;
8913;SDS011;4492;48.736;9.092;2023-04-25T13:55:00;6.50;;;5.37;;
8913;SDS011;4492;48.736;9.092;2023-04-25T13:57:28;6.10;;;4.83;;
8913;SDS011;4492;48.736;9.092;2023-04-25T13:59:55;6.07;;;5.07;;
8913;SDS011;4492;48.736;9.092;2023-04-25T14:02:21;8.57;;;5.13;;
8913;SDS011;4492;48.736;9.092;2023-04-25T14:04:46;7.73;;;5.00;;
8913;SDS011;4492;48.736;9.092;2023-04-25T14:07:13;5.83;;;4.93;;
8913;SDS011;4492;48.736;9.092;2023-04-25T14:09:41;6.27;;;5.03;;
8913;SDS011;4492;48.736;9.092;2023-04-25T14:12:06;5.67;;;4.87;;
8913;SDS011;4492;48.736;9.092;2023-04-25T14:14:32;5.57;;;5.03;;
8913;SDS011;4492;48.736;9.092;2023-04-25T14:16:58;5.77;;;4.70;;
8913;SDS011;4492;48.736;9.092;2023-04-25T14:19:23;5.53;;;4.63;;
8913;SDS011;4492;48.736;9.092;2023-04-25T14:21:49;5.70;;;4.80;;
8913;SDS011;4492;48.736;9.092;2023-04-25T14:24:15;5.20;;;4.40;;
8913;SDS011;4492;48.736;9.092;2023-04-25T14:26:41;4.60;;;4.20;;
8913;SDS011;4492;48.736;9.092;2023-04-25T14:29:07;5.93;;;4.50;;
8913;SDS011;4492;48.736;9.092;2023-04-25T14:31:36;5.27;;;4.10;;
8913;SDS011;4492;48.736;9.092;2023-04-25T14:34:02;3.47;;;3.17;;
8913;SDS011;4492;48.736;9.092;2023-04-25T14:36:28;3.63;;;3.33;;
8913;SDS011;4492;48.736;9.092;2023-04-25T14:38:55;3.93;;;3.63;;
8913;SDS011;4492;48.736;9.092;2023-04-25T14:41:21;3.77;;;3.00;;
8913;SDS011;4492;48.736;9.092;2023-04-25T14:43:48;4.00;;;3.70;;
8913;SDS011;4492;48.736;9.092;2023-04-25T14:46:13;4.47;;;3.43;;
8913;SDS011;4492;48.736;9.092;2023-04-25T14:48:39;4.40;;;3.77;;
8913;SDS011;4492;48.736;9.092;2023-04-25T14:51:05;4.50;;;3.47;;
8913;SDS011;4492;48.736;9.092;2023-04-25T14:53:31;3.50;;;3.20;;
8913;SDS011;4492;48.736;9.092;2023-04-25T14:55:57;4.13;;;3.57;;
8913;SDS011;4492;48.736;9.092;2023-04-25T14:58:23;3.03;;;2.83;;
8913;SDS011;4492;48.736;9.092;2023-04-25T15:00:48;2.87;;;2.67;;
8913;SDS011;4492;48.736;9.092;2023-04-25T15:03:16;3.30;;;3.10;;
8913;SDS011;4492;48.736;9.092;2023-04-25T15:05:42;3.57;;;2.97;;
8913;SDS011;4492;48.736;9.092;2023-04-25T15:08:08;3.47;;;2.90;;
8913;SDS011;4492;48.736;9.092;2023-04-25T15:10:35;3.60;;;2.90;;
8913;SDS011;4492;48.736;9.092;2023-04-25T15:13:01;3.63;;;2.83;;
8913;SDS011;4492;48.736;9.092;2023-04-25T15:15:28;3.07;;;2.57;;
8913;SDS011;4492;48.736;9.092;2023-04-25T15:17:53;3.30;;;2.57;;
8913;SDS011;4492;48.736;9.092;2023-04-25T15:20:20;4.03;;;2.77;;
8913;SDS011;4492;48.736;9.092;2023-04-25T15:22:46;2.63;;;2.43;;